sensor_id;sensor_type;location;lat;lon;timestamp;P1;durP1;ratioP1;P2;durP2;ratioP2
21392;SDS011;10857;52.228;21.026;2023-01-08T07:51:22;31.50;;;14.73;;
21392;SDS011;10857;52.228;21.026;2023-01-08T07:53:50;31.57;;;17.70;;
21392;SDS011;10857;52.228;21.026;2023-01-08T07:56:17;28.10;;;15.07;;
21392;SDS011;10857;52.228;21.026;2023-01-08T07:58:45;28.80;;;14.97;;
21392;SDS011;10857;52.228;21.026;2023-01-08T08:01:12;27.27;;;13.63;;
21392;SDS011;10857;52.228;21.026;2023-01-08T08:03:40;29.23;;;14.63;;
21392;SDS011;10857;52.228;21.026;2023-01-08T08:06:08;29.63;;;14.70;;
21392;SDS011;10857;52.228;21.026;2023-01-08T08:08:35;27.00;;;14.03;;
21392;SDS011;10857;52.228;21.026;2023-01-08T08:11:02;28.33;;;14.30;;
21392;SDS011;10857;52.228;21.026;2023-01-08T08:13:30;29.07;;;14.20;;
21392;SDS011;10857;52.228;21.026;2023-01-08T08:16:01;30.67;;;14.40;;
21392;SDS011;10857;52.228;21.026;2023-01-08T08:18:29;31.67;;;14.43;;
21392;SDS011;10857;52.228;21.026;2023-01-08T08:20:56;28.43;;;14.33;;
21392;SDS011;10857;52.228;21.026;2023-01-08T08:23:23;32.03;;;13.93;;
21392;SDS011;10857;52.228;21.026;2023-01-08T08:25:51;28.10;;;14.20;;
21392;SDS011;10857;52.228;21.026;2023-01-08T08:28:20;29.30;;;14.80;;
21392;SDS011;10857;52.228;21.026;2023-01-08T08:30:47;25.57;;;13.60;;
21392;SDS011;10857;52.228;21.026;2023-01-08T08:33:14;27.97;;;14.37;;
21392;SDS011;10857;52.228;21.026;2023-01-08T08:35:46;29.77;;;14.73;;
21392;SDS011;10857;52.228;21.026;2023-01-08T08:38:14;30.83;;;14.87;;
21392;SDS011;10857;52.228;21.026;2023-01-08T08:40:42;29.27;;;15.17;;
21392;SDS011;10857;52.228;21.026;2023-01-08T08:43:09;30.23;;;14.23;;
21392;SDS011;10857;52.228;21.026;2023-01-08T08:45:37;29.27;;;15.03;;
21392;SDS011;10857;52.228;21.026;2023-01-08T08:48:05;28.57;;;14.97;;
21392;SDS011;10857;52.228;21.026;2023-01-08T08:50:32;29.13;;;15.07;;
21392;SDS011;10857;52.228;21.026;2023-01-08T08:53:00;31.17;;;15.47;;
21392;SDS011;10857;52.228;21.026;2023-01-08T08:55:31;32.20;;;15.40;;
21392;SDS011;10857;52.228;21.026;2023-01-08T08:58:05;32.93;;;15.73;;
21392;SDS011;10857;52.228;21.026;2023-01-08T09:00:33;26.43;;;15.13;;
21392;SDS011;10857;52.228;21.026;2023-01-08T09:03:00;30.87;;;15.20;;
21392;SDS011;10857;52.228;21.026;2023-01-08T09:05:28;27.80;;;14.63;;
21392;SDS011;10857;52.228;21.026;2023-01-08T09:07:55;31.23;;;15.33;;
21392;SDS011;10857;52.228;21.026;2023-01-08T09:10:23;31.70;;;15.27;;
21392;SDS011;10857;52.228;21.026;2023-01-08T09:12:51;32.77;;;15.07;;
21392;SDS011;10857;52.228;21.026;2023-01-08T09:15:19;31.73;;;15.37;;
21392;SDS011;10857;52.228;21.026;2023-01-08T09:17:56;27.23;;;14.97;;
21392;SDS011;10857;52.228;21.026;2023-01-08T09:20:24;29.27;;;15.73;;
21392;SDS011;10857;52.228;21.026;2023-01-08T09:22:52;31.57;;;15.17;;
21392;SDS011;10857;52.228;21.026;2023-01-08T09:25:19;30.13;;;15.77;;
21392;SDS011;10857;52.228;21.026;2023-01-08T09:27:47;32.30;;;16.27;;
21392;SDS011;10857;52.228;21.026;2023-01-08T09:30:14;28.90;;;15.47;;
21392;SDS011;10857;52.228;21.026;2023-01-08T09:32:41;28.87;;;15.57;;
21392;SDS011;10857;52.228;21.026;2023-01-08T09:35:09;30.17;;;15.60;;
21392;SDS011;10857;52.228;21.026;2023-01-08T09:37:36;28.97;;;15.83;;
21392;SDS011;10857;52.228;21.026;2023-01-08T09:40:03;28.33;;;15.33;;
21392;SDS011;10857;52.228;21.026;2023-01-08T09:42:31;29.73;;;15.60;;
21392;SDS011;10857;52.228;21.026;2023-01-08T09:44:59;31.33;;;15.60;;
21392;SDS011;10857;52.228;21.026;2023-01-08T09:47:28;27.90;;;15.87;;
21392;SDS011;10857;52.228;21.026;2023-01-08T09:49:58;32.37;;;15.83;;
21392;SDS011;10857;52.228;21.026;2023-01-08T09:52:26;30.93;;;15.83;;
21392;SDS011;10857;52.228;21.026;2023-01-08T09:54:54;28.73;;;15.47;;
21392;SDS011;10857;52.228;21.026;2023-01-08T09:57:21;27.43;;;14.83;;
21392;SDS011;10857;52.228;21.026;2023-01-08T09:59:49;30.97;;;15.37;;
21392;SDS011;10857;52.228;21.026;2023-01-08T10:02:17;31.93;;;16.53;;
21392;SDS011;10857;52.228;21.026;2023-01-08T10:04:46;30.63;;;15.97;;
21392;SDS011;10857;52.228;21.026;2023-01-08T10:07:21;32.37;;;16.33;;
21392;SDS011;10857;52.228;21.026;2023-01-08T10:09:50;30.47;;;15.83;;
21392;SDS011;10857;52.228;21.026;2023-01-08T10:12:35;29.37;;;15.67;;
21392;SDS011;10857;52.228;21.026;2023-01-08T10:15:04;28.47;;;15.80;;
21392;SDS011;10857;52.228;21.026;2023-01-08T10:17:45;29.33;;;16.27;;
21392;SDS011;10857;52.228;21.026;2023-01-08T10:22:41;30.10;;;15.97;;
21392;SDS011;10857;52.228;21.026;2023-01-08T10:25:11;29.43;;;16.20;;
21392;SDS011;10857;52.228;21.026;2023-01-08T10:27:46;32.23;;;16.40;;
21392;SDS011;10857;52.228;21.026;2023-01-08T10:30:14;31.47;;;16.17;;
21392;SDS011;10857;52.228;21.026;2023-01-08T10:32:50;32.67;;;17.47;;
21392;SDS011;10857;52.228;21.026;2023-01-08T10:35:20;30.67;;;16.40;;
21392;SDS011;10857;52.228;21.026;2023-01-08T10:37:48;29.10;;;16.10;;
21392;SDS011;10857;52.228;21.026;2023-01-08T10:40:49;30.27;;;16.50;;
21392;SDS011;10857;52.228;21.026;2023-01-08T10:43:13;32.27;;;17.33;;
21392;SDS011;10857;52.228;21.026;2023-01-08T10:45:42;33.93;;;17.83;;
21392;SDS011;10857;52.228;21.026;2023-01-08T10:48:15;37.80;;;19.30;;
21392;SDS011;10857;52.228;21.026;2023-01-08T10:50:43;38.80;;;19.53;;
21392;SDS011;10857;52.228;21.026;2023-01-08T10:53:20;35.07;;;18.57;;
21392;SDS011;10857;52.228;21.026;2023-01-08T10:56:02;37.73;;;19.53;;
21392;SDS011;10857;52.228;21.026;2023-01-08T10:58:39;37.37;;;20.37;;
21392;SDS011;10857;52.228;21.026;2023-01-08T11:01:07;37.37;;;19.23;;
21392;SDS011;10857;52.228;21.026;2023-01-08T11:03:36;42.33;;;21.13;;
21392;SDS011;10857;52.228;21.026;2023-01-08T11:06:10;38.90;;;20.33;;
21392;SDS011;10857;52.228;21.026;2023-01-08T11:08:38;40.60;;;20.83;;
21392;SDS011;10857;52.228;21.026;2023-01-08T11:11:06;39.40;;;21.27;;
21392;SDS011;10857;52.228;21.026;2023-01-08T11:13:34;41.93;;;21.13;;
21392;SDS011;10857;52.228;21.026;2023-01-08T11:18:29;44.43;;;21.60;;
21392;SDS011;10857;52.228;21.026;2023-01-08T11:21:05;43.60;;;20.73;;
21392;SDS011;10857;52.228;21.026;2023-01-08T11:23:33;41.50;;;20.73;;
21392;SDS011;10857;52.228;21.026;2023-01-08T11:28:30;39.30;;;21.00;;
21392;SDS011;10857;52.228;21.026;2023-01-08T11:31:08;36.60;;;20.30;;
21392;SDS011;10857;52.228;21.026;2023-01-08T11:33:36;38.63;;;20.43;;
21392;SDS011;10857;52.228;21.026;2023-01-08T11:36:10;40.23;;;20.50;;
21392;SDS011;10857;52.228;21.026;2023-01-08T11:38:40;38.10;;;19.97;;
21392;SDS011;10857;52.228;21.026;2023-01-08T11:46:56;41.33;;;21.37;;
21392;SDS011;10857;52.228;21.026;2023-01-08T11:49:32;39.70;;;20.60;;
21392;SDS011;10857;52.228;21.026;2023-01-08T11:52:07;38.60;;;20.23;;
21392;SDS011;10857;52.228;21.026;2023-01-08T11:54:43;40.63;;;20.43;;
21392;SDS011;10857;52.228;21.026;2023-01-08T12:09:58;40.40;;;21.33;;
21392;SDS011;10857;52.228;21.026;2023-01-08T12:17:50;38.57;;;21.57;;
21392;SDS011;10857;52.228;21.026;2023-01-08T12:20:26;39.33;;;21.27;;
21392;SDS011;10857;52.228;21.026;2023-01-08T12:22:59;35.03;;;19.97;;
21392;SDS011;10857;52.228;21.026;2023-01-08T12:25:44;37.10;;;20.33;;
21392;SDS011;10857;52.228;21.026;2023-01-08T12:36:44;37.90;;;20.77;;
21392;SDS011;10857;52.228;21.026;2023-01-08T12:39:25;38.67;;;20.20;;
21392;SDS011;10857;52.228;21.026;2023-01-08T12:41:55;37.67;;;20.63;;
21392;SDS011;10857;52.228;21.026;2023-01-08T12:44:25;36.47;;;19.93;;
21392;SDS011;10857;52.228;21.026;2023-01-08T12:46:54;37.70;;;20.03;;
21392;SDS011;10857;52.228;21.026;2023-01-08T12:49:25;37.43;;;20.33;;
21392;SDS011;10857;52.228;21.026;2023-01-08T12:52:09;38.93;;;20.67;;
21392;SDS011;10857;52.228;21.026;2023-01-08T13:04:50;39.97;;;21.13;;
21392;SDS011;10857;52.228;21.026;2023-01-08T13:07:18;38.37;;;21.07;;
21392;SDS011;10857;52.228;21.026;2023-01-08T13:09:56;41.03;;;21.40;;
21392;SDS011;10857;52.228;21.026;2023-01-08T13:12:33;41.47;;;21.90;;
21392;SDS011;10857;52.228;21.026;2023-01-08T13:15:01;42.07;;;22.13;;
21392;SDS011;10857;52.228;21.026;2023-01-08T13:17:29;44.63;;;22.77;;
21392;SDS011;10857;52.228;21.026;2023-01-08T13:20:00;43.93;;;22.87;;
21392;SDS011;10857;52.228;21.026;2023-01-08T13:22:29;42.80;;;22.23;;
21392;SDS011;10857;52.228;21.026;2023-01-08T13:27:44;49.50;;;24.70;;
21392;SDS011;10857;52.228;21.026;2023-01-08T13:32:58;48.87;;;25.10;;
21392;SDS011;10857;52.228;21.026;2023-01-08T13:35:26;44.17;;;24.33;;
21392;SDS011;10857;52.228;21.026;2023-01-08T13:38:04;43.97;;;24.47;;
21392;SDS011;10857;52.228;21.026;2023-01-08T13:40:47;48.77;;;24.73;;
21392;SDS011;10857;52.228;21.026;2023-01-08T13:43:28;48.33;;;24.93;;
21392;SDS011;10857;52.228;21.026;2023-01-08T13:48:24;46.23;;;23.63;;
21392;SDS011;10857;52.228;21.026;2023-01-08T13:50:52;48.73;;;24.70;;
21392;SDS011;10857;52.228;21.026;2023-01-08T13:53:20;47.60;;;23.77;;
21392;SDS011;10857;52.228;21.026;2023-01-08T13:55:58;47.80;;;23.73;;
21392;SDS011;10857;52.228;21.026;2023-01-08T13:58:31;48.90;;;24.77;;
21392;SDS011;10857;52.228;21.026;2023-01-08T14:00:59;50.67;;;23.60;;
21392;SDS011;10857;52.228;21.026;2023-01-08T14:03:31;49.93;;;23.93;;
21392;SDS011;10857;52.228;21.026;2023-01-08T14:06:04;50.37;;;24.03;;
21392;SDS011;10857;52.228;21.026;2023-01-08T14:08:32;46.83;;;23.67;;
21392;SDS011;10857;52.228;21.026;2023-01-08T14:11:00;46.40;;;23.70;;
21392;SDS011;10857;52.228;21.026;2023-01-08T14:13:29;49.47;;;23.80;;
21392;SDS011;10857;52.228;21.026;2023-01-08T14:16:01;47.67;;;23.33;;
21392;SDS011;10857;52.228;21.026;2023-01-08T14:18:28;53.37;;;25.40;;
21392;SDS011;10857;52.228;21.026;2023-01-08T14:20:56;49.47;;;24.33;;
21392;SDS011;10857;52.228;21.026;2023-01-08T14:23:24;51.47;;;24.63;;
21392;SDS011;10857;52.228;21.026;2023-01-08T14:25:54;51.43;;;23.03;;
21392;SDS011;10857;52.228;21.026;2023-01-08T14:28:23;53.50;;;24.73;;
21392;SDS011;10857;52.228;21.026;2023-01-08T14:30:52;51.73;;;23.60;;
21392;SDS011;10857;52.228;21.026;2023-01-08T14:33:21;54.73;;;25.67;;
21392;SDS011;10857;52.228;21.026;2023-01-08T14:35:50;50.53;;;24.20;;
21392;SDS011;10857;52.228;21.026;2023-01-08T14:38:17;57.70;;;25.07;;
21392;SDS011;10857;52.228;21.026;2023-01-08T14:43:34;54.43;;;24.87;;
21392;SDS011;10857;52.228;21.026;2023-01-08T14:46:08;53.20;;;24.00;;
21392;SDS011;10857;52.228;21.026;2023-01-08T14:48:41;53.80;;;24.43;;
21392;SDS011;10857;52.228;21.026;2023-01-08T14:51:10;50.43;;;24.30;;
21392;SDS011;10857;52.228;21.026;2023-01-08T14:53:52;51.93;;;24.00;;
21392;SDS011;10857;52.228;21.026;2023-01-08T14:56:23;50.67;;;23.90;;
21392;SDS011;10857;52.228;21.026;2023-01-08T14:58:52;50.87;;;24.23;;
21392;SDS011;10857;52.228;21.026;2023-01-08T15:01:21;50.97;;;24.03;;
21392;SDS011;10857;52.228;21.026;2023-01-08T15:03:49;50.37;;;23.83;;
21392;SDS011;10857;52.228;21.026;2023-01-08T15:06:24;50.37;;;24.43;;
21392;SDS011;10857;52.228;21.026;2023-01-08T15:08:51;53.83;;;25.17;;
21392;SDS011;10857;52.228;21.026;2023-01-08T15:11:26;49.97;;;25.23;;
21392;SDS011;10857;52.228;21.026;2023-01-08T15:13:57;52.73;;;24.60;;
21392;SDS011;10857;52.228;21.026;2023-01-08T15:16:36;50.93;;;24.33;;
21392;SDS011;10857;52.228;21.026;2023-01-08T15:19:05;53.47;;;25.37;;
21392;SDS011;10857;52.228;21.026;2023-01-08T15:21:33;56.60;;;25.80;;
21392;SDS011;10857;52.228;21.026;2023-01-08T15:24:01;52.73;;;25.03;;
21392;SDS011;10857;52.228;21.026;2023-01-08T15:26:30;48.50;;;23.60;;
21392;SDS011;10857;52.228;21.026;2023-01-08T15:33:52;51.93;;;25.23;;
21392;SDS011;10857;52.228;21.026;2023-01-08T15:36:19;53.57;;;25.73;;
21392;SDS011;10857;52.228;21.026;2023-01-08T15:38:47;52.27;;;24.27;;
21392;SDS011;10857;52.228;21.026;2023-01-08T15:41:18;48.77;;;24.57;;
21392;SDS011;10857;52.228;21.026;2023-01-08T15:44:05;54.47;;;24.80;;
21392;SDS011;10857;52.228;21.026;2023-01-08T15:46:32;49.60;;;24.67;;
21392;SDS011;10857;52.228;21.026;2023-01-08T15:49:00;50.40;;;24.53;;
21392;SDS011;10857;52.228;21.026;2023-01-08T15:51:28;54.73;;;26.07;;
21392;SDS011;10857;52.228;21.026;2023-01-08T15:53:57;50.57;;;25.20;;
21392;SDS011;10857;52.228;21.026;2023-01-08T15:56:25;51.03;;;25.67;;
21392;SDS011;10857;52.228;21.026;2023-01-08T15:58:52;52.47;;;25.30;;
21392;SDS011;10857;52.228;21.026;2023-01-08T16:01:19;53.60;;;26.03;;
21392;SDS011;10857;52.228;21.026;2023-01-08T16:03:47;51.70;;;25.17;;
21392;SDS011;10857;52.228;21.026;2023-01-08T16:06:15;53.87;;;25.13;;
21392;SDS011;10857;52.228;21.026;2023-01-08T16:08:42;51.67;;;26.37;;
21392;SDS011;10857;52.228;21.026;2023-01-08T16:11:20;51.17;;;25.80;;
21392;SDS011;10857;52.228;21.026;2023-01-08T16:13:47;53.20;;;25.33;;
21392;SDS011;10857;52.228;21.026;2023-01-08T16:16:15;50.43;;;24.60;;
21392;SDS011;10857;52.228;21.026;2023-01-08T16:18:43;50.00;;;24.70;;
21392;SDS011;10857;52.228;21.026;2023-01-08T16:21:10;53.27;;;26.53;;
21392;SDS011;10857;52.228;21.026;2023-01-08T16:23:38;54.33;;;25.73;;
21392;SDS011;10857;52.228;21.026;2023-01-08T16:26:06;51.77;;;26.37;;
21392;SDS011;10857;52.228;21.026;2023-01-08T16:28:34;55.43;;;27.23;;
21392;SDS011;10857;52.228;21.026;2023-01-08T16:31:01;58.27;;;26.47;;
21392;SDS011;10857;52.228;21.026;2023-01-08T16:33:29;54.93;;;27.30;;
21392;SDS011;10857;52.228;21.026;2023-01-08T16:35:57;54.97;;;26.17;;
21392;SDS011;10857;52.228;21.026;2023-01-08T16:38:24;51.27;;;25.30;;
21392;SDS011;10857;52.228;21.026;2023-01-08T16:40:52;54.23;;;26.47;;
21392;SDS011;10857;52.228;21.026;2023-01-08T16:43:25;53.90;;;27.17;;
21392;SDS011;10857;52.228;21.026;2023-01-08T16:45:53;55.47;;;27.10;;
21392;SDS011;10857;52.228;21.026;2023-01-08T16:48:21;56.33;;;27.93;;
21392;SDS011;10857;52.228;21.026;2023-01-08T16:50:49;54.17;;;26.50;;
21392;SDS011;10857;52.228;21.026;2023-01-08T16:53:16;54.50;;;27.17;;
21392;SDS011;10857;52.228;21.026;2023-01-08T16:55:44;54.40;;;26.97;;
21392;SDS011;10857;52.228;21.026;2023-01-08T16:58:11;52.50;;;25.93;;
21392;SDS011;10857;52.228;21.026;2023-01-08T17:00:38;58.73;;;26.07;;
21392;SDS011;10857;52.228;21.026;2023-01-08T17:03:06;52.80;;;26.60;;
21392;SDS011;10857;52.228;21.026;2023-01-08T17:05:34;53.13;;;26.67;;
21392;SDS011;10857;52.228;21.026;2023-01-08T17:08:02;51.37;;;26.00;;
21392;SDS011;10857;52.228;21.026;2023-01-08T17:10:30;48.00;;;25.23;;
21392;SDS011;10857;52.228;21.026;2023-01-08T17:12:57;48.63;;;24.93;;
21392;SDS011;10857;52.228;21.026;2023-01-08T17:15:25;49.93;;;25.60;;
21392;SDS011;10857;52.228;21.026;2023-01-08T17:17:52;47.20;;;25.73;;
21392;SDS011;10857;52.228;21.026;2023-01-08T17:20:20;52.50;;;27.37;;
21392;SDS011;10857;52.228;21.026;2023-01-08T17:22:48;56.27;;;28.77;;
21392;SDS011;10857;52.228;21.026;2023-01-08T17:25:15;52.00;;;26.57;;
21392;SDS011;10857;52.228;21.026;2023-01-08T17:27:42;52.60;;;26.63;;
21392;SDS011;10857;52.228;21.026;2023-01-08T17:30:10;56.77;;;27.17;;
21392;SDS011;10857;52.228;21.026;2023-01-08T17:32:39;54.90;;;26.97;;
21392;SDS011;10857;52.228;21.026;2023-01-08T17:35:06;48.27;;;24.93;;
21392;SDS011;10857;52.228;21.026;2023-01-08T17:37:34;50.83;;;26.43;;
21392;SDS011;10857;52.228;21.026;2023-01-08T17:40:02;54.47;;;26.43;;
21392;SDS011;10857;52.228;21.026;2023-01-08T17:42:29;52.93;;;26.97;;
21392;SDS011;10857;52.228;21.026;2023-01-08T17:44:57;54.60;;;27.00;;
21392;SDS011;10857;52.228;21.026;2023-01-08T17:47:29;49.73;;;26.70;;
21392;SDS011;10857;52.228;21.026;2023-01-08T17:49:56;56.00;;;27.03;;
21392;SDS011;10857;52.228;21.026;2023-01-08T17:52:24;54.57;;;27.17;;
21392;SDS011;10857;52.228;21.026;2023-01-08T17:54:51;53.40;;;27.77;;
21392;SDS011;10857;52.228;21.026;2023-01-08T17:57:19;52.10;;;26.93;;
21392;SDS011;10857;52.228;21.026;2023-01-08T17:59:47;54.57;;;28.00;;
21392;SDS011;10857;52.228;21.026;2023-01-08T18:02:15;52.27;;;25.87;;
21392;SDS011;10857;52.228;21.026;2023-01-08T18:04:43;57.37;;;27.43;;
21392;SDS011;10857;52.228;21.026;2023-01-08T18:07:11;54.87;;;27.43;;
21392;SDS011;10857;52.228;21.026;2023-01-08T18:09:38;56.67;;;26.83;;
21392;SDS011;10857;52.228;21.026;2023-01-08T18:12:06;50.77;;;25.90;;
21392;SDS011;10857;52.228;21.026;2023-01-08T18:14:33;52.80;;;26.13;;
21392;SDS011;10857;52.228;21.026;2023-01-08T18:17:03;51.07;;;26.50;;
21392;SDS011;10857;52.228;21.026;2023-01-08T18:19:30;53.43;;;26.17;;
21392;SDS011;10857;52.228;21.026;2023-01-08T18:21:58;57.37;;;25.73;;
21392;SDS011;10857;52.228;21.026;2023-01-08T18:24:26;54.57;;;26.40;;
21392;SDS011;10857;52.228;21.026;2023-01-08T18:26:53;53.90;;;26.90;;
21392;SDS011;10857;52.228;21.026;2023-01-08T18:29:20;54.57;;;26.40;;
21392;SDS011;10857;52.228;21.026;2023-01-08T18:31:48;51.97;;;26.07;;
21392;SDS011;10857;52.228;21.026;2023-01-08T18:34:15;54.13;;;26.93;;
21392;SDS011;10857;52.228;21.026;2023-01-08T18:36:42;54.27;;;26.57;;
21392;SDS011;10857;52.228;21.026;2023-01-08T18:39:10;54.97;;;26.90;;
21392;SDS011;10857;52.228;21.026;2023-01-08T18:41:38;52.77;;;25.60;;
21392;SDS011;10857;52.228;21.026;2023-01-08T18:44:24;52.33;;;26.37;;
21392;SDS011;10857;52.228;21.026;2023-01-08T18:46:51;51.93;;;25.70;;
21392;SDS011;10857;52.228;21.026;2023-01-08T18:49:19;54.43;;;26.73;;
21392;SDS011;10857;52.228;21.026;2023-01-08T18:51:48;53.13;;;26.03;;
21392;SDS011;10857;52.228;21.026;2023-01-08T18:54:16;53.17;;;26.63;;
21392;SDS011;10857;52.228;21.026;2023-01-08T18:56:43;56.23;;;27.57;;
21392;SDS011;10857;52.228;21.026;2023-01-08T18:59:11;53.70;;;26.80;;
21392;SDS011;10857;52.228;21.026;2023-01-08T19:01:39;61.47;;;26.80;;
21392;SDS011;10857;52.228;21.026;2023-01-08T19:04:08;52.17;;;26.03;;
21392;SDS011;10857;52.228;21.026;2023-01-08T19:06:37;52.20;;;26.60;;
21392;SDS011;10857;52.228;21.026;2023-01-08T19:09:04;55.33;;;27.53;;
21392;SDS011;10857;52.228;21.026;2023-01-08T19:11:32;56.67;;;27.13;;
21392;SDS011;10857;52.228;21.026;2023-01-08T19:13:59;54.93;;;26.87;;
21392;SDS011;10857;52.228;21.026;2023-01-08T19:16:26;57.80;;;27.17;;
21392;SDS011;10857;52.228;21.026;2023-01-08T19:18:55;57.43;;;28.23;;
21392;SDS011;10857;52.228;21.026;2023-01-08T19:21:22;55.43;;;27.73;;
21392;SDS011;10857;52.228;21.026;2023-01-08T19:23:50;54.87;;;27.67;;
21392;SDS011;10857;52.228;21.026;2023-01-08T19:26:18;57.07;;;27.57;;
21392;SDS011;10857;52.228;21.026;2023-01-08T19:28:46;58.00;;;28.13;;
21392;SDS011;10857;52.228;21.026;2023-01-08T19:31:14;60.13;;;28.10;;
21392;SDS011;10857;52.228;21.026;2023-01-08T19:33:42;58.00;;;28.57;;
21392;SDS011;10857;52.228;21.026;2023-01-08T19:36:11;59.23;;;28.53;;
21392;SDS011;10857;52.228;21.026;2023-01-08T19:38:41;54.77;;;27.23;;
21392;SDS011;10857;52.228;21.026;2023-01-08T19:41:09;58.00;;;28.63;;
21392;SDS011;10857;52.228;21.026;2023-01-08T19:43:55;56.37;;;28.43;;
21392;SDS011;10857;52.228;21.026;2023-01-08T19:46:23;60.00;;;28.43;;
21392;SDS011;10857;52.228;21.026;2023-01-08T19:48:51;56.73;;;28.03;;
21392;SDS011;10857;52.228;21.026;2023-01-08T19:51:18;60.63;;;28.93;;
21392;SDS011;10857;52.228;21.026;2023-01-08T19:53:45;58.93;;;28.80;;
21392;SDS011;10857;52.228;21.026;2023-01-08T19:56:13;56.93;;;28.00;;
21392;SDS011;10857;52.228;21.026;2023-01-08T19:58:40;59.13;;;28.87;;
21392;SDS011;10857;52.228;21.026;2023-01-08T20:03:36;58.57;;;28.87;;
21392;SDS011;10857;52.228;21.026;2023-01-08T20:06:04;62.60;;;30.27;;
21392;SDS011;10857;52.228;21.026;2023-01-08T20:08:32;61.80;;;29.43;;
21392;SDS011;10857;52.228;21.026;2023-01-08T20:11:06;58.60;;;28.90;;
21392;SDS011;10857;52.228;21.026;2023-01-08T20:13:33;63.50;;;29.47;;
21392;SDS011;10857;52.228;21.026;2023-01-08T20:16:05;60.67;;;29.20;;
21392;SDS011;10857;52.228;21.026;2023-01-08T20:18:34;58.23;;;29.40;;
21392;SDS011;10857;52.228;21.026;2023-01-08T20:21:08;62.90;;;28.70;;
21392;SDS011;10857;52.228;21.026;2023-01-08T20:23:36;64.13;;;30.43;;
21392;SDS011;10857;52.228;21.026;2023-01-08T20:26:05;62.80;;;30.40;;
21392;SDS011;10857;52.228;21.026;2023-01-08T20:28:33;60.40;;;30.10;;
21392;SDS011;10857;52.228;21.026;2023-01-08T20:31:04;64.73;;;31.50;;
21392;SDS011;10857;52.228;21.026;2023-01-08T20:33:32;65.00;;;31.30;;
21392;SDS011;10857;52.228;21.026;2023-01-08T20:36:01;69.00;;;32.70;;
21392;SDS011;10857;52.228;21.026;2023-01-08T20:38:32;67.70;;;32.97;;
21392;SDS011;10857;52.228;21.026;2023-01-08T20:40:59;68.23;;;31.87;;
21392;SDS011;10857;52.228;21.026;2023-01-08T20:43:27;64.20;;;31.57;;
21392;SDS011;10857;52.228;21.026;2023-01-08T20:45:54;67.07;;;31.63;;
21392;SDS011;10857;52.228;21.026;2023-01-08T20:48:22;66.20;;;31.20;;
21392;SDS011;10857;52.228;21.026;2023-01-08T20:50:53;66.67;;;31.77;;
21392;SDS011;10857;52.228;21.026;2023-01-08T20:53:21;64.23;;;30.90;;
21392;SDS011;10857;52.228;21.026;2023-01-08T20:55:49;66.83;;;30.83;;
21392;SDS011;10857;52.228;21.026;2023-01-08T20:58:17;65.93;;;31.37;;
21392;SDS011;10857;52.228;21.026;2023-01-08T21:00:44;66.93;;;31.57;;
21392;SDS011;10857;52.228;21.026;2023-01-08T21:03:11;68.67;;;31.87;;
21392;SDS011;10857;52.228;21.026;2023-01-08T21:05:39;68.37;;;32.20;;
21392;SDS011;10857;52.228;21.026;2023-01-08T21:08:06;73.57;;;32.13;;
21392;SDS011;10857;52.228;21.026;2023-01-08T21:10:34;65.17;;;33.00;;
21392;SDS011;10857;52.228;21.026;2023-01-08T21:13:01;71.60;;;31.73;;
21392;SDS011;10857;52.228;21.026;2023-01-08T21:15:29;73.13;;;32.47;;
21392;SDS011;10857;52.228;21.026;2023-01-08T21:17:56;72.50;;;33.03;;
21392;SDS011;10857;52.228;21.026;2023-01-08T21:20:24;73.43;;;33.97;;
21392;SDS011;10857;52.228;21.026;2023-01-08T21:22:51;77.70;;;34.50;;
21392;SDS011;10857;52.228;21.026;2023-01-08T21:25:18;76.53;;;33.00;;
21392;SDS011;10857;52.228;21.026;2023-01-08T21:27:46;79.30;;;34.13;;
21392;SDS011;10857;52.228;21.026;2023-01-08T21:30:13;76.17;;;34.50;;
21392;SDS011;10857;52.228;21.026;2023-01-08T21:32:40;73.43;;;33.63;;
21392;SDS011;10857;52.228;21.026;2023-01-08T21:35:08;70.87;;;33.10;;
21392;SDS011;10857;52.228;21.026;2023-01-08T21:37:35;74.57;;;33.03;;
21392;SDS011;10857;52.228;21.026;2023-01-08T21:40:03;72.87;;;34.27;;
21392;SDS011;10857;52.228;21.026;2023-01-08T21:42:31;70.97;;;31.63;;
21392;SDS011;10857;52.228;21.026;2023-01-08T21:45:16;71.00;;;31.63;;
21392;SDS011;10857;52.228;21.026;2023-01-08T21:47:50;72.70;;;33.47;;
21392;SDS011;10857;52.228;21.026;2023-01-08T21:50:18;72.67;;;33.13;;
21392;SDS011;10857;52.228;21.026;2023-01-08T21:52:45;73.77;;;32.67;;
21392;SDS011;10857;52.228;21.026;2023-01-08T21:55:31;74.17;;;33.33;;
21392;SDS011;10857;52.228;21.026;2023-01-08T21:58:19;71.13;;;33.10;;
21392;SDS011;10857;52.228;21.026;2023-01-08T22:00:47;70.50;;;31.67;;
21392;SDS011;10857;52.228;21.026;2023-01-08T22:03:14;75.07;;;33.40;;
21392;SDS011;10857;52.228;21.026;2023-01-08T22:05:41;75.17;;;33.20;;
21392;SDS011;10857;52.228;21.026;2023-01-08T22:08:09;74.93;;;33.23;;
21392;SDS011;10857;52.228;21.026;2023-01-08T22:10:43;71.40;;;32.17;;
21392;SDS011;10857;52.228;21.026;2023-01-08T22:13:10;73.50;;;33.70;;
21392;SDS011;10857;52.228;21.026;2023-01-08T22:15:38;68.60;;;32.63;;
21392;SDS011;10857;52.228;21.026;2023-01-08T22:18:05;73.30;;;33.40;;
21392;SDS011;10857;52.228;21.026;2023-01-08T22:20:32;68.60;;;32.40;;
21392;SDS011;10857;52.228;21.026;2023-01-08T22:23:00;77.17;;;33.80;;
21392;SDS011;10857;52.228;21.026;2023-01-08T22:25:27;74.70;;;33.30;;
21392;SDS011;10857;52.228;21.026;2023-01-08T22:27:55;73.30;;;33.23;;
21392;SDS011;10857;52.228;21.026;2023-01-08T22:30:22;73.53;;;33.57;;
21392;SDS011;10857;52.228;21.026;2023-01-08T22:32:49;72.70;;;32.43;;
21392;SDS011;10857;52.228;21.026;2023-01-08T22:35:17;70.53;;;33.10;;
21392;SDS011;10857;52.228;21.026;2023-01-08T22:37:44;70.30;;;31.53;;
21392;SDS011;10857;52.228;21.026;2023-01-08T22:40:12;71.27;;;33.00;;
21392;SDS011;10857;52.228;21.026;2023-01-08T22:42:39;72.10;;;32.73;;
21392;SDS011;10857;52.228;21.026;2023-01-08T22:45:07;75.93;;;33.20;;
21392;SDS011;10857;52.228;21.026;2023-01-08T22:47:34;68.23;;;31.90;;
21392;SDS011;10857;52.228;21.026;2023-01-08T22:50:02;73.43;;;33.53;;
21392;SDS011;10857;52.228;21.026;2023-01-08T22:52:29;74.13;;;33.33;;
21392;SDS011;10857;52.228;21.026;2023-01-08T22:54:56;70.60;;;32.50;;
21392;SDS011;10857;52.228;21.026;2023-01-08T22:57:24;76.33;;;33.27;;
21392;SDS011;10857;52.228;21.026;2023-01-08T22:59:54;72.30;;;32.47;;
21392;SDS011;10857;52.228;21.026;2023-01-08T23:02:21;74.07;;;34.03;;
21392;SDS011;10857;52.228;21.026;2023-01-08T23:04:52;75.63;;;34.33;;
21392;SDS011;10857;52.228;21.026;2023-01-08T23:07:19;74.93;;;33.97;;
21392;SDS011;10857;52.228;21.026;2023-01-08T23:09:47;75.07;;;34.90;;
21392;SDS011;10857;52.228;21.026;2023-01-08T23:12:14;73.90;;;34.83;;
21392;SDS011;10857;52.228;21.026;2023-01-08T23:14:41;72.93;;;33.80;;
21392;SDS011;10857;52.228;21.026;2023-01-08T23:17:09;77.47;;;35.73;;
21392;SDS011;10857;52.228;21.026;2023-01-08T23:19:36;80.23;;;36.10;;